EZY21YA LFKJ-LIRN
Flight info
| Callsign | EZY21YA |
|---|---|
| Flight time | 1h 4m |
| Altitude | 33000 |
| Route | CORSI DCT OKIDO DCT POKAV M603 PNZ |
| Aircraft | B736/M-SDE2E3FGHIRWXY/LB1 |
Departure
| Time | 2026-04-28 12:17 |
|---|---|
| Airport | Ajaccio Napoléon Bonaparte airport (LFKJ) |
Arrival
| Time | 2026-04-28 13:22 |
|---|---|
| Airport | Naples International Airport (LIRN) |
| Time | Latitude | Longitude | Altitude | Speed | Heading |
|---|---|---|---|---|---|
| 2026-04-28 11:59 | 41.91914 | 8.79536 | 20 ft | 0 kts | 345° |
| 2026-04-28 12:10 | 41.91907 | 8.79539 | 23 ft | 2 kts | 344° |
| 2026-04-28 12:10 | 41.91891 | 8.79545 | 22 ft | 2 kts | 329° |
| 2026-04-28 12:10 | 41.91881 | 8.79562 | 20 ft | 2 kts | 293° |
| 2026-04-28 12:10 | 41.91874 | 8.79582 | 22 ft | 2 kts | 330° |
| 2026-04-28 12:11 | 41.91860 | 8.79582 | 22 ft | 1 kts | 23° |
| 2026-04-28 12:11 | 41.91858 | 8.79580 | 22 ft | 0 kts | 24° |
| 2026-04-28 12:13 | 41.91864 | 8.79584 | 21 ft | 2 kts | 24° |
| 2026-04-28 12:13 | 41.91888 | 8.79599 | 20 ft | 5 kts | 25° |
| 2026-04-28 12:13 | 41.91930 | 8.79625 | 21 ft | 8 kts | 25° |
| 2026-04-28 12:13 | 41.91987 | 8.79661 | 20 ft | 11 kts | 25° |
| 2026-04-28 12:14 | 41.92061 | 8.79708 | 21 ft | 13 kts | 25° |
| 2026-04-28 12:14 | 41.92150 | 8.79763 | 20 ft | 15 kts | 25° |
| 2026-04-28 12:14 | 41.92246 | 8.79822 | 22 ft | 15 kts | 25° |
| 2026-04-28 12:14 | 41.92339 | 8.79880 | 20 ft | 14 kts | 25° |
| 2026-04-28 12:15 | 41.92427 | 8.79935 | 20 ft | 14 kts | 25° |
| 2026-04-28 12:15 | 41.92521 | 8.79994 | 21 ft | 16 kts | 25° |
| 2026-04-28 12:15 | 41.92623 | 8.80057 | 20 ft | 17 kts | 25° |
| 2026-04-28 12:15 | 41.92733 | 8.80127 | 21 ft | 18 kts | 30° |
| 2026-04-28 12:16 | 41.92834 | 8.80232 | 20 ft | 19 kts | 44° |
| 2026-04-28 12:16 | 41.92928 | 8.80362 | 20 ft | 20 kts | 45° |
| 2026-04-28 12:16 | 41.92945 | 8.80522 | 25 ft | 19 kts | 130° |
| 2026-04-28 12:16 | 41.92818 | 8.80510 | 27 ft | 31 kts | 205° |
| 2026-04-28 12:17 | 41.92427 | 8.80267 | 23 ft | 90 kts | 205° |
| 2026-04-28 12:17 | 41.91712 | 8.79827 | 30 ft | 132 kts | 205° |
| 2026-04-28 12:17 | 41.90848 | 8.79296 | 387 ft | 136 kts | 211° |
| 2026-04-28 12:17 | 41.90034 | 8.78561 | 688 ft | 146 kts | 216° |
| 2026-04-28 12:18 | 41.89188 | 8.77788 | 1277 ft | 150 kts | 216° |
| 2026-04-28 12:18 | 41.88339 | 8.76974 | 2102 ft | 152 kts | 215° |
| 2026-04-28 12:18 | 41.87448 | 8.76148 | 2692 ft | 153 kts | 213° |
| 2026-04-28 12:18 | 41.86554 | 8.75359 | 2960 ft | 162 kts | 212° |
| 2026-04-28 12:19 | 41.85627 | 8.74540 | 2998 ft | 156 kts | 213° |
| 2026-04-28 12:19 | 41.84735 | 8.73743 | 2988 ft | 152 kts | 212° |
| 2026-04-28 12:19 | 41.83862 | 8.72963 | 2989 ft | 150 kts | 212° |
| 2026-04-28 12:19 | 41.82992 | 8.72184 | 3000 ft | 150 kts | 212° |
| 2026-04-28 12:20 | 41.82121 | 8.71402 | 3005 ft | 151 kts | 211° |
| 2026-04-28 12:20 | 41.81258 | 8.70625 | 3007 ft | 152 kts | 212° |
| 2026-04-28 12:20 | 41.80376 | 8.69832 | 3013 ft | 154 kts | 211° |
| 2026-04-28 12:20 | 41.79462 | 8.69012 | 3157 ft | 168 kts | 211° |
| 2026-04-28 12:21 | 41.78415 | 8.68075 | 3411 ft | 195 kts | 212° |
| 2026-04-28 12:21 | 41.77220 | 8.67004 | 3619 ft | 218 kts | 212° |
| 2026-04-28 12:21 | 41.75903 | 8.65822 | 3838 ft | 236 kts | 212° |
| 2026-04-28 12:21 | 41.74520 | 8.64579 | 4283 ft | 242 kts | 212° |
| 2026-04-28 12:22 | 41.73116 | 8.63320 | 4822 ft | 243 kts | 212° |
| 2026-04-28 12:22 | 41.71699 | 8.62079 | 5332 ft | 244 kts | 207° |
| 2026-04-28 12:22 | 41.70071 | 8.61554 | 5850 ft | 243 kts | 178° |
| 2026-04-28 12:22 | 41.68423 | 8.62014 | 6414 ft | 244 kts | 161° |
| 2026-04-28 12:23 | 41.66849 | 8.62829 | 6925 ft | 246 kts | 158° |
| 2026-04-28 12:23 | 41.65264 | 8.63725 | 7449 ft | 249 kts | 158° |
| 2026-04-28 12:23 | 41.63664 | 8.64636 | 7993 ft | 251 kts | 158° |
| 2026-04-28 12:23 | 41.62049 | 8.65547 | 8558 ft | 253 kts | 158° |
| 2026-04-28 12:24 | 41.60412 | 8.66463 | 9136 ft | 256 kts | 159° |
| 2026-04-28 12:24 | 41.58757 | 8.67381 | 9743 ft | 258 kts | 159° |
| 2026-04-28 12:24 | 41.57085 | 8.68303 | 10274 ft | 262 kts | 159° |
| 2026-04-28 12:24 | 41.55392 | 8.69233 | 10819 ft | 264 kts | 159° |
| 2026-04-28 12:25 | 41.53682 | 8.70170 | 11383 ft | 266 kts | 159° |
| 2026-04-28 12:25 | 41.51957 | 8.71112 | 11914 ft | 269 kts | 159° |
| 2026-04-28 12:25 | 41.50236 | 8.72050 | 12468 ft | 272 kts | 159° |
| 2026-04-28 12:25 | 41.48476 | 8.73009 | 13027 ft | 274 kts | 159° |
| 2026-04-28 12:26 | 41.46703 | 8.73975 | 13595 ft | 276 kts | 159° |
| 2026-04-28 12:26 | 41.44914 | 8.74948 | 14127 ft | 279 kts | 159° |
| 2026-04-28 12:26 | 41.43109 | 8.75929 | 14621 ft | 281 kts | 159° |
| 2026-04-28 12:26 | 41.41281 | 8.76922 | 15119 ft | 284 kts | 159° |
| 2026-04-28 12:27 | 41.39444 | 8.77919 | 15629 ft | 286 kts | 160° |
| 2026-04-28 12:27 | 41.37593 | 8.78923 | 16133 ft | 289 kts | 159° |
| 2026-04-28 12:27 | 41.35722 | 8.79936 | 16625 ft | 292 kts | 160° |
| 2026-04-28 12:27 | 41.33893 | 8.81052 | 17075 ft | 297 kts | 148° |
| 2026-04-28 12:28 | 41.32408 | 8.82974 | 17566 ft | 301 kts | 128° |
| 2026-04-28 12:28 | 41.31219 | 8.85284 | 18077 ft | 304 kts | 125° |
| 2026-04-28 12:28 | 41.30063 | 8.87671 | 18491 ft | 308 kts | 124° |
| 2026-04-28 12:28 | 41.28911 | 8.90081 | 18920 ft | 310 kts | 124° |
| 2026-04-28 12:29 | 41.26558 | 8.94969 | 19670 ft | 317 kts | 124° |
| 2026-04-28 12:29 | 41.25357 | 8.97441 | 20096 ft | 319 kts | 124° |
| 2026-04-28 12:29 | 41.24148 | 8.99920 | 20495 ft | 321 kts | 124° |
| 2026-04-28 12:30 | 41.22921 | 9.02424 | 20844 ft | 325 kts | 124° |
| 2026-04-28 12:30 | 41.21685 | 9.04941 | 21273 ft | 326 kts | 124° |
| 2026-04-28 12:30 | 41.20435 | 9.07482 | 21656 ft | 329 kts | 124° |
| 2026-04-28 12:30 | 41.19174 | 9.10041 | 22025 ft | 333 kts | 124° |
| 2026-04-28 12:31 | 41.17914 | 9.12593 | 22373 ft | 341 kts | 124° |
| 2026-04-28 12:31 | 41.16577 | 9.15298 | 22481 ft | 360 kts | 124° |
| 2026-04-28 12:31 | 41.15154 | 9.18173 | 22589 ft | 384 kts | 124° |
| 2026-04-28 12:31 | 41.13647 | 9.21215 | 22776 ft | 404 kts | 124° |
| 2026-04-28 12:32 | 41.12070 | 9.24395 | 22945 ft | 422 kts | 124° |
| 2026-04-28 12:32 | 41.10438 | 9.27689 | 23367 ft | 431 kts | 124° |
| 2026-04-28 12:32 | 41.08775 | 9.31041 | 23810 ft | 439 kts | 124° |
| 2026-04-28 12:32 | 41.07090 | 9.34432 | 24362 ft | 441 kts | 124° |
| 2026-04-28 12:33 | 41.05399 | 9.37831 | 24918 ft | 444 kts | 124° |
| 2026-04-28 12:33 | 41.03688 | 9.41266 | 25411 ft | 448 kts | 124° |
| 2026-04-28 12:33 | 41.01962 | 9.44725 | 25905 ft | 452 kts | 124° |
| 2026-04-28 12:33 | 41.00224 | 9.48206 | 26448 ft | 454 kts | 124° |
| 2026-04-28 12:34 | 40.98471 | 9.51712 | 26920 ft | 459 kts | 124° |
| 2026-04-28 12:34 | 40.96703 | 9.55247 | 27383 ft | 462 kts | 124° |
| 2026-04-28 12:34 | 40.94945 | 9.58755 | 27879 ft | 464 kts | 124° |
| 2026-04-28 12:34 | 40.93152 | 9.62330 | 28285 ft | 469 kts | 124° |
| 2026-04-28 12:35 | 40.91341 | 9.65937 | 28712 ft | 472 kts | 124° |
| 2026-04-28 12:35 | 40.89514 | 9.69574 | 29127 ft | 475 kts | 124° |
| 2026-04-28 12:35 | 40.87679 | 9.73222 | 29612 ft | 477 kts | 124° |
| 2026-04-28 12:35 | 40.85849 | 9.76870 | 30200 ft | 476 kts | 122° |
| 2026-04-28 12:36 | 40.84351 | 9.80746 | 30748 ft | 474 kts | 111° |
| 2026-04-28 12:36 | 40.83408 | 9.84913 | 31295 ft | 472 kts | 101° |
| 2026-04-28 12:36 | 40.82996 | 9.89196 | 31774 ft | 470 kts | 90° |
| 2026-04-28 12:36 | 40.83022 | 9.93514 | 32223 ft | 470 kts | 88° |
| 2026-04-28 12:37 | 40.83108 | 9.97841 | 32617 ft | 472 kts | 87° |
| 2026-04-28 12:37 | 40.83204 | 10.02174 | 33022 ft | 472 kts | 87° |
| 2026-04-28 12:37 | 40.83291 | 10.06534 | 33055 ft | 479 kts | 88° |
| 2026-04-28 12:38 | 40.83421 | 10.15364 | 33074 ft | 486 kts | 88° |
| 2026-04-28 12:38 | 40.83509 | 10.24249 | 33072 ft | 483 kts | 88° |
| 2026-04-28 12:39 | 40.83581 | 10.33100 | 33077 ft | 481 kts | 88° |
| 2026-04-28 12:39 | 40.83648 | 10.41928 | 33076 ft | 480 kts | 88° |
| 2026-04-28 12:40 | 40.83711 | 10.50737 | 33082 ft | 479 kts | 88° |
| 2026-04-28 12:40 | 40.83767 | 10.59544 | 33081 ft | 479 kts | 88° |
| 2026-04-28 12:41 | 40.83817 | 10.68348 | 33081 ft | 479 kts | 88° |
| 2026-04-28 12:41 | 40.83859 | 10.77101 | 33084 ft | 479 kts | 88° |
| 2026-04-28 12:42 | 40.83896 | 10.85904 | 33078 ft | 480 kts | 88° |
| 2026-04-28 12:42 | 40.83925 | 10.94713 | 33088 ft | 480 kts | 88° |
| 2026-04-28 12:43 | 40.83948 | 11.03532 | 33089 ft | 480 kts | 88° |
| 2026-04-28 12:43 | 40.83964 | 11.12357 | 33085 ft | 480 kts | 88° |
| 2026-04-28 12:44 | 40.83974 | 11.21169 | 33092 ft | 480 kts | 89° |
| 2026-04-28 12:44 | 40.83977 | 11.29965 | 33080 ft | 479 kts | 88° |
| 2026-04-28 12:45 | 40.83974 | 11.38779 | 33090 ft | 479 kts | 88° |
| 2026-04-28 12:45 | 40.84253 | 11.47556 | 33088 ft | 478 kts | 84° |
| 2026-04-28 12:46 | 40.84761 | 11.56302 | 33084 ft | 477 kts | 84° |
| 2026-04-28 12:46 | 40.85233 | 11.65062 | 33083 ft | 477 kts | 84° |
| 2026-04-28 12:47 | 40.85657 | 11.73748 | 33091 ft | 477 kts | 85° |
| 2026-04-28 12:47 | 40.86074 | 11.82488 | 33090 ft | 477 kts | 85° |
| 2026-04-28 12:48 | 40.86495 | 11.91239 | 33092 ft | 476 kts | 85° |
| 2026-04-28 12:48 | 40.86917 | 11.99981 | 33090 ft | 476 kts | 85° |
| 2026-04-28 12:49 | 40.87330 | 12.08711 | 33092 ft | 476 kts | 85° |
| 2026-04-28 12:49 | 40.87736 | 12.17434 | 33093 ft | 475 kts | 85° |
| 2026-04-28 12:50 | 40.88135 | 12.26151 | 33094 ft | 475 kts | 85° |
| 2026-04-28 12:50 | 40.88530 | 12.34867 | 33092 ft | 475 kts | 85° |
| 2026-04-28 12:51 | 40.88926 | 12.43512 | 33091 ft | 474 kts | 85° |
| 2026-04-28 12:51 | 40.89318 | 12.52196 | 33081 ft | 470 kts | 85° |
| 2026-04-28 12:52 | 40.89697 | 12.60760 | 33094 ft | 465 kts | 85° |
| 2026-04-28 12:52 | 40.90071 | 12.69323 | 32574 ft | 468 kts | 85° |
| 2026-04-28 12:52 | 40.90254 | 12.73581 | 32005 ft | 461 kts | 85° |
| 2026-04-28 12:53 | 40.90432 | 12.77780 | 31427 ft | 454 kts | 85° |
| 2026-04-28 12:53 | 40.90607 | 12.81924 | 30837 ft | 448 kts | 85° |
| 2026-04-28 12:53 | 40.90779 | 12.86018 | 30267 ft | 443 kts | 85° |
| 2026-04-28 12:53 | 40.90891 | 12.88705 | 29840 ft | 440 kts | 85° |
| 2026-04-28 12:54 | 40.91057 | 12.92710 | 29211 ft | 434 kts | 86° |
| 2026-04-28 12:54 | 40.91032 | 12.96676 | 28616 ft | 430 kts | 97° |
| 2026-04-28 12:54 | 40.90325 | 13.00485 | 28083 ft | 423 kts | 105° |
| 2026-04-28 12:54 | 40.89209 | 13.05402 | 27293 ft | 418 kts | 106° |
| 2026-04-28 12:55 | 40.88653 | 13.07827 | 26921 ft | 415 kts | 106° |
| 2026-04-28 12:55 | 40.87830 | 13.11477 | 26368 ft | 411 kts | 106° |
| 2026-04-28 12:55 | 40.87036 | 13.15083 | 25835 ft | 407 kts | 105° |
| 2026-04-28 12:55 | 40.86259 | 13.18665 | 25302 ft | 404 kts | 105° |
| 2026-04-28 12:56 | 40.85494 | 13.22222 | 24775 ft | 400 kts | 105° |
| 2026-04-28 12:56 | 40.84734 | 13.25751 | 24251 ft | 398 kts | 105° |
| 2026-04-28 12:56 | 40.83977 | 13.29256 | 23714 ft | 396 kts | 106° |
| 2026-04-28 12:56 | 40.83221 | 13.32742 | 23107 ft | 394 kts | 106° |
| 2026-04-28 12:57 | 40.82469 | 13.36198 | 22547 ft | 390 kts | 106° |
| 2026-04-28 12:57 | 40.81722 | 13.39622 | 22024 ft | 386 kts | 106° |
| 2026-04-28 12:57 | 40.80981 | 13.43015 | 21518 ft | 382 kts | 106° |
| 2026-04-28 12:57 | 40.80248 | 13.46370 | 21000 ft | 379 kts | 106° |
| 2026-04-28 12:58 | 40.79527 | 13.49664 | 20507 ft | 376 kts | 106° |
| 2026-04-28 12:58 | 40.78803 | 13.52968 | 20015 ft | 373 kts | 106° |
| 2026-04-28 12:58 | 40.78084 | 13.56246 | 19523 ft | 370 kts | 106° |
| 2026-04-28 12:58 | 40.77370 | 13.59500 | 19043 ft | 368 kts | 106° |
| 2026-04-28 12:59 | 40.76661 | 13.62726 | 18562 ft | 366 kts | 107° |
| 2026-04-28 12:59 | 40.75953 | 13.65937 | 18032 ft | 364 kts | 107° |
| 2026-04-28 12:59 | 40.75266 | 13.69144 | 17494 ft | 361 kts | 102° |
| 2026-04-28 12:59 | 40.75194 | 13.72431 | 17033 ft | 358 kts | 81° |
| 2026-04-28 13:00 | 40.75947 | 13.75502 | 16820 ft | 351 kts | 62° |
| 2026-04-28 13:00 | 40.77177 | 13.78226 | 16606 ft | 348 kts | 57° |
| 2026-04-28 13:00 | 40.78476 | 13.80881 | 16354 ft | 340 kts | 56° |
| 2026-04-28 13:00 | 40.79748 | 13.83465 | 16125 ft | 331 kts | 57° |
| 2026-04-28 13:01 | 40.80978 | 13.86000 | 15916 ft | 323 kts | 57° |
| 2026-04-28 13:01 | 40.82165 | 13.88484 | 15706 ft | 316 kts | 57° |
| 2026-04-28 13:01 | 40.83318 | 13.90916 | 15505 ft | 309 kts | 57° |
| 2026-04-28 13:01 | 40.84445 | 13.93300 | 15304 ft | 300 kts | 57° |
| 2026-04-28 13:02 | 40.85508 | 13.95607 | 15107 ft | 289 kts | 58° |
| 2026-04-28 13:02 | 40.86521 | 13.97841 | 14938 ft | 286 kts | 58° |
| 2026-04-28 13:02 | 40.87535 | 14.00082 | 14752 ft | 283 kts | 58° |
| 2026-04-28 13:02 | 40.88541 | 14.02302 | 14596 ft | 281 kts | 58° |
| 2026-04-28 13:03 | 40.89548 | 14.04523 | 14406 ft | 282 kts | 58° |
| 2026-04-28 13:03 | 40.90554 | 14.06741 | 14221 ft | 281 kts | 58° |
| 2026-04-28 13:03 | 40.91558 | 14.08956 | 14037 ft | 281 kts | 58° |
| 2026-04-28 13:03 | 40.92560 | 14.11168 | 13851 ft | 280 kts | 58° |
| 2026-04-28 13:04 | 40.93562 | 14.13381 | 13617 ft | 280 kts | 58° |
| 2026-04-28 13:04 | 40.94560 | 14.15587 | 13422 ft | 279 kts | 58° |
| 2026-04-28 13:04 | 40.95555 | 14.17789 | 13238 ft | 278 kts | 58° |
| 2026-04-28 13:04 | 40.96544 | 14.19980 | 13053 ft | 277 kts | 58° |
| 2026-04-28 13:05 | 40.97530 | 14.22162 | 12871 ft | 275 kts | 58° |
| 2026-04-28 13:05 | 40.98509 | 14.24333 | 12694 ft | 275 kts | 58° |
| 2026-04-28 13:05 | 40.99487 | 14.26504 | 12515 ft | 274 kts | 58° |
| 2026-04-28 13:05 | 41.00449 | 14.28639 | 12328 ft | 273 kts | 59° |
| 2026-04-28 13:06 | 41.01424 | 14.30801 | 12157 ft | 272 kts | 59° |
| 2026-04-28 13:06 | 41.02394 | 14.32948 | 11974 ft | 271 kts | 59° |
| 2026-04-28 13:06 | 41.03360 | 14.35090 | 11806 ft | 270 kts | 59° |
| 2026-04-28 13:06 | 41.04325 | 14.37227 | 11626 ft | 270 kts | 59° |
| 2026-04-28 13:07 | 41.05289 | 14.39360 | 11457 ft | 270 kts | 59° |
| 2026-04-28 13:07 | 41.06252 | 14.41500 | 11264 ft | 269 kts | 59° |
| 2026-04-28 13:07 | 41.07208 | 14.43625 | 11088 ft | 268 kts | 59° |
| 2026-04-28 13:07 | 41.08183 | 14.45728 | 10925 ft | 265 kts | 58° |
| 2026-04-28 13:08 | 41.09149 | 14.47760 | 10780 ft | 264 kts | 58° |
| 2026-04-28 13:08 | 41.10140 | 14.49839 | 10611 ft | 263 kts | 58° |
| 2026-04-28 13:08 | 41.11101 | 14.51858 | 10478 ft | 262 kts | 58° |
| 2026-04-28 13:08 | 41.12074 | 14.53908 | 10312 ft | 262 kts | 59° |
| 2026-04-28 13:09 | 41.13044 | 14.55957 | 10168 ft | 262 kts | 58° |
| 2026-04-28 13:09 | 41.14012 | 14.58004 | 10008 ft | 261 kts | 59° |
| 2026-04-28 13:09 | 41.14957 | 14.60014 | 9854 ft | 252 kts | 59° |
| 2026-04-28 13:09 | 41.15872 | 14.61986 | 9678 ft | 251 kts | 59° |
| 2026-04-28 13:10 | 41.16781 | 14.63944 | 9519 ft | 248 kts | 60° |
| 2026-04-28 13:10 | 41.17677 | 14.65880 | 9397 ft | 245 kts | 59° |
| 2026-04-28 13:10 | 41.18565 | 14.67796 | 9223 ft | 242 kts | 59° |
| 2026-04-28 13:10 | 41.19443 | 14.69691 | 9087 ft | 240 kts | 59° |
| 2026-04-28 13:11 | 41.20275 | 14.71616 | 8948 ft | 241 kts | 71° |
| 2026-04-28 13:11 | 41.20434 | 14.73787 | 8810 ft | 238 kts | 103° |
| 2026-04-28 13:11 | 41.19709 | 14.75736 | 8697 ft | 238 kts | 134° |
| 2026-04-28 13:11 | 41.18425 | 14.77115 | 8577 ft | 238 kts | 148° |
| 2026-04-28 13:12 | 41.17025 | 14.78259 | 8364 ft | 239 kts | 150° |
| 2026-04-28 13:12 | 41.15608 | 14.79362 | 8202 ft | 231 kts | 155° |
| 2026-04-28 13:12 | 41.14093 | 14.79774 | 8050 ft | 217 kts | 184° |
| 2026-04-28 13:12 | 41.12679 | 14.79242 | 7927 ft | 210 kts | 208° |
| 2026-04-28 13:13 | 41.11561 | 14.78025 | 7820 ft | 209 kts | 230° |
| 2026-04-28 13:13 | 41.10754 | 14.76444 | 7690 ft | 206 kts | 236° |
| 2026-04-28 13:13 | 41.10010 | 14.74822 | 7588 ft | 205 kts | 237° |
| 2026-04-28 13:13 | 41.09270 | 14.73208 | 7475 ft | 205 kts | 237° |
| 2026-04-28 13:14 | 41.08522 | 14.71591 | 7367 ft | 206 kts | 237° |
| 2026-04-28 13:14 | 41.07771 | 14.69980 | 7228 ft | 204 kts | 236° |
| 2026-04-28 13:14 | 41.07034 | 14.68401 | 7112 ft | 200 kts | 236° |
| 2026-04-28 13:14 | 41.06313 | 14.66863 | 7013 ft | 198 kts | 236° |
| 2026-04-28 13:15 | 41.05568 | 14.65268 | 6781 ft | 206 kts | 237° |
| 2026-04-28 13:15 | 41.04822 | 14.63665 | 6531 ft | 207 kts | 236° |
| 2026-04-28 13:15 | 41.04062 | 14.62040 | 6175 ft | 206 kts | 236° |
| 2026-04-28 13:15 | 41.03324 | 14.60448 | 5906 ft | 201 kts | 236° |
| 2026-04-28 13:16 | 41.02595 | 14.58891 | 5636 ft | 199 kts | 236° |
| 2026-04-28 13:16 | 41.01874 | 14.57349 | 5345 ft | 192 kts | 236° |
| 2026-04-28 13:16 | 41.01179 | 14.55825 | 5101 ft | 196 kts | 237° |
| 2026-04-28 13:16 | 41.00464 | 14.54272 | 4835 ft | 195 kts | 236° |
| 2026-04-28 13:17 | 40.99753 | 14.52751 | 4495 ft | 190 kts | 236° |
| 2026-04-28 13:17 | 40.99080 | 14.51319 | 4216 ft | 178 kts | 236° |
| 2026-04-28 13:17 | 40.98435 | 14.49974 | 3999 ft | 175 kts | 237° |
| 2026-04-28 13:17 | 40.97819 | 14.48618 | 3759 ft | 170 kts | 237° |
| 2026-04-28 13:18 | 40.97199 | 14.47321 | 3504 ft | 164 kts | 238° |
| 2026-04-28 13:18 | 40.96605 | 14.46068 | 3299 ft | 162 kts | 238° |
| 2026-04-28 13:18 | 40.96008 | 14.44810 | 3077 ft | 158 kts | 238° |
| 2026-04-28 13:18 | 40.95439 | 14.43601 | 2815 ft | 150 kts | 238° |
| 2026-04-28 13:19 | 40.94907 | 14.42475 | 2604 ft | 141 kts | 238° |
| 2026-04-28 13:19 | 40.94359 | 14.41314 | 2407 ft | 158 kts | 238° |
| 2026-04-28 13:19 | 40.93774 | 14.40067 | 2143 ft | 159 kts | 239° |
| 2026-04-28 13:19 | 40.93202 | 14.38851 | 1927 ft | 153 kts | 239° |
| 2026-04-28 13:20 | 40.92662 | 14.37709 | 1685 ft | 142 kts | 240° |
| 2026-04-28 13:20 | 40.92165 | 14.36654 | 1468 ft | 133 kts | 239° |
| 2026-04-28 13:20 | 40.91675 | 14.35598 | 1358 ft | 137 kts | 239° |
| 2026-04-28 13:20 | 40.91188 | 14.34485 | 1145 ft | 141 kts | 238° |
| 2026-04-28 13:21 | 40.90693 | 14.33437 | 885 ft | 130 kts | 233° |
| 2026-04-28 13:21 | 40.90196 | 14.32452 | 682 ft | 130 kts | 235° |
| 2026-04-28 13:21 | 40.89734 | 14.31439 | 504 ft | 127 kts | 235° |
| 2026-04-28 13:21 | 40.89252 | 14.30436 | 323 ft | 129 kts | 235° |
| 2026-04-28 13:22 | 40.88799 | 14.29489 | 256 ft | 114 kts | 235° |
| 2026-04-28 13:22 | 40.88453 | 14.28763 | 274 ft | 70 kts | 240° |
| 2026-04-28 13:22 | 40.88254 | 14.28337 | 284 ft | 48 kts | 237° |
| 2026-04-28 13:22 | 40.88118 | 14.28055 | 294 ft | 14 kts | 235° |
| 2026-04-28 13:23 | 40.88066 | 14.28048 | 291 ft | 8 kts | 148° |
| 2026-04-28 13:23 | 40.88020 | 14.28099 | 293 ft | 10 kts | 114° |
| 2026-04-28 13:23 | 40.88047 | 14.28193 | 291 ft | 14 kts | 58° |
| 2026-04-28 13:23 | 40.88063 | 14.28316 | 287 ft | 14 kts | 97° |
| 2026-04-28 13:24 | 40.88051 | 14.28441 | 285 ft | 13 kts | 97° |
| 2026-04-28 13:24 | 40.88018 | 14.28534 | 284 ft | 11 kts | 178° |
| 2026-04-28 13:24 | 40.87958 | 14.28481 | 286 ft | 10 kts | 218° |
| 2026-04-28 13:24 | 40.87940 | 14.28397 | 287 ft | 10 kts | 276° |
| 2026-04-28 13:25 | 40.87948 | 14.28306 | 289 ft | 10 kts | 277° |
| 2026-04-28 13:25 | 40.87957 | 14.28218 | 295 ft | 10 kts | 277° |
| 2026-04-28 13:25 | 40.87959 | 14.28154 | 291 ft | 0 kts | 246° |
| 2026-04-28 13:25 | 40.87956 | 14.28151 | 291 ft | 1 kts | 229° |
| 2026-04-28 13:26 | 40.87946 | 14.28148 | 294 ft | 3 kts | 190° |
| 2026-04-28 13:26 | 40.87919 | 14.28155 | 294 ft | 5 kts | 164° |
| 2026-04-28 13:26 | 40.87889 | 14.28167 | 293 ft | 0 kts | 163° |